Time;durP1;ratioP1;P1;durP2;ratioP2;P2;SDS_P1;SDS_P2;PMS_P1;PMS_P2;Temp;Humidity;BMP_temperature;BMP_pressure;BME280_temperature;BME280_humidity;BME280_pressure;Samples;Min_cycle;Max_cycle;Signal;HPM_P1;HPM_P2
2024/01/16 00:00:38;;;;;;;22.63;14.43;;;4.20;99.90;;;;;;6219664;23;20004;-80
2024/01/16 00:03:04;;;;;;;19.73;13.60;;;4.20;99.90;;;;;;6246279;23;20004;-79
2024/01/16 00:05:30;;;;;;;21.77;13.43;;;4.20;99.90;;;;;;6246279;23;20008;-80
2024/01/16 00:07:58;;;;;;;20.03;12.27;;;4.20;99.90;;;;;;6246491;23;20051;-80
2024/01/16 00:10:23;;;;;;;19.83;12.83;;;4.20;99.90;;;;;;6246756;23;20008;-64
2024/01/16 00:12:49;;;;;;;16.73;11.57;;;4.20;99.90;;;;;;6245905;23;20004;-66
2024/01/16 00:15:15;;;;;;;15.87;10.90;;;4.20;99.90;;;;;;6246512;23;20004;-66
2024/01/16 00:17:41;;;;;;;15.30;10.03;;;4.20;99.90;;;;;;6246423;23;20031;-66
2024/01/16 00:20:07;;;;;;;13.60;9.67;;;4.20;99.90;;;;;;6246185;23;20004;-66
2024/01/16 00:22:33;;;;;;;17.37;10.23;;;4.30;99.90;;;;;;6245649;23;20000;-66
2024/01/16 00:24:59;;;;;;;13.17;8.93;;;4.30;99.90;;;;;;6246486;23;20058;-66
2024/01/16 00:27:25;;;;;;;12.67;8.73;;;4.30;99.90;;;;;;6246032;23;20438;-67
2024/01/16 00:29:51;;;;;;;13.83;9.00;;;4.30;99.90;;;;;;6246013;23;20091;-67
2024/01/16 00:32:16;;;;;;;12.77;8.53;;;4.30;99.90;;;;;;6247138;23;20034;-80
2024/01/16 00:34:43;;;;;;;11.37;7.67;;;4.30;99.90;;;;;;6247129;23;20434;-80
2024/01/16 00:37:08;;;;;;;12.90;8.10;;;4.30;99.90;;;;;;6246484;23;20015;-77
2024/01/16 00:39:34;;;;;;;10.10;6.50;;;4.30;99.90;;;;;;6246457;23;20001;-77
2024/01/16 00:42:05;;;;;;;11.60;6.80;;;4.30;99.90;;;;;;6246965;23;20307;-79
2024/01/16 00:54:41;;;;;;;10.17;6.27;;;4.40;99.90;;;;;;6246182;23;20108;-79
2024/01/16 01:04:01;;;;;;;10.67;6.33;;;4.40;99.90;;;;;;6123663;23;20052;-79
2024/01/16 01:07:10;;;;;;;;;;;;;;;;;;;;;
2024/01/16 01:09:36;;;;;;;8.93;6.00;;;4.40;99.90;;;;;;6130731;23;20512;-80
2024/01/16 01:12:03;;;;;;;8.70;5.83;;;4.40;99.90;;;;;;6245691;23;20071;-78
2024/01/16 01:14:29;;;;;;;9.93;6.07;;;4.40;99.90;;;;;;6245829;23;20391;-80
2024/01/16 01:16:55;;;;;;;8.30;5.63;;;4.30;99.90;;;;;;6245534;23;20080;-77
2024/01/16 01:19:21;;;;;;;8.10;5.77;;;4.30;99.90;;;;;;6246011;23;20032;-80
2024/01/16 01:21:47;;;;;;;7.80;5.33;;;4.30;99.90;;;;;;6246033;23;20004;-79
2024/01/16 01:24:13;;;;;;;8.63;5.03;;;4.30;99.90;;;;;;6245652;23;20011;-80
2024/01/16 01:26:38;;;;;;;7.47;5.30;;;4.30;99.90;;;;;;6245606;23;20030;-77
2024/01/16 01:29:04;;;;;;;7.27;4.87;;;4.30;99.90;;;;;;6245725;23;20050;-77
2024/01/16 01:31:30;;;;;;;7.07;4.70;;;4.30;99.90;;;;;;6245089;23;20015;-77
2024/01/16 01:33:55;;;;;;;7.67;4.83;;;4.20;99.90;;;;;;6245648;23;19996;-79
2024/01/16 01:36:22;;;;;;;6.40;4.33;;;4.30;99.90;;;;;;6245531;23;20442;-80
2024/01/16 01:38:48;;;;;;;8.30;4.50;;;4.30;99.90;;;;;;6245249;23;20012;-80
2024/01/16 01:41:13;;;;;;;7.33;4.90;;;4.30;99.90;;;;;;6245851;23;20004;-77
2024/01/16 01:43:39;;;;;;;9.67;5.67;;;4.40;99.90;;;;;;6245577;23;20007;-77
2024/01/16 01:46:18;;;;;;;6.97;4.40;;;4.40;99.90;;;;;;6245668;23;20000;-80
2024/01/16 01:48:46;;;;;;;5.47;3.57;;;4.40;99.90;;;;;;6245594;23;20389;-80
2024/01/16 01:51:13;;;;;;;4.97;3.60;;;4.40;99.90;;;;;;6245141;23;20008;-73
2024/01/16 01:53:41;;;;;;;3.97;2.67;;;4.40;99.90;;;;;;6218256;23;20058;-80
2024/01/16 01:56:18;;;;;;;4.47;2.90;;;4.40;99.90;;;;;;6245188;23;20007;-80
2024/01/16 01:58:46;;;;;;;4.67;3.00;;;4.40;99.90;;;;;;6242721;23;20016;-75
2024/01/16 02:01:15;;;;;;;4.23;2.90;;;4.40;99.90;;;;;;6242062;23;20015;-79
2024/01/16 02:03:45;;;;;;;4.13;2.77;;;4.50;99.90;;;;;;6242051;23;20441;-78
2024/01/16 02:06:12;;;;;;;3.67;2.13;;;4.50;99.90;;;;;;6244944;23;20457;-74
2024/01/16 02:08:39;;;;;;;3.17;2.20;;;4.60;99.90;;;;;;6245334;23;20003;-78
2024/01/16 02:11:05;;;;;;;4.20;2.40;;;4.60;99.90;;;;;;6245243;23;20501;-77
2024/01/16 02:13:31;;;;;;;3.20;2.50;;;4.60;99.90;;;;;;6245439;23;20072;-79
2024/01/16 02:15:57;;;;;;;4.87;2.87;;;4.60;99.90;;;;;;6246301;23;20028;-80
2024/01/16 02:18:23;;;;;;;3.83;2.47;;;4.70;99.90;;;;;;6221000;23;20011;-80
2024/01/16 02:20:50;;;;;;;4.33;2.87;;;4.70;99.90;;;;;;6247451;23;20004;-80
2024/01/16 02:47:23;;;;;;;3.53;2.30;;;4.60;99.90;;;;;;6095417;23;20513;-80
2024/01/16 02:49:49;;;;;;;3.87;1.80;;;4.60;99.90;;;;;;6095587;23;20010;-76
2024/01/16 02:52:15;;;;;;;3.53;1.97;;;4.60;99.90;;;;;;6098111;23;20086;-78
2024/01/16 02:54:41;;;;;;;2.53;1.97;;;4.60;99.90;;;;;;6247319;23;20053;-80
2024/01/16 02:57:07;;;;;;;2.47;1.97;;;4.70;99.90;;;;;;6247212;23;20000;-79
2024/01/16 02:59:33;;;;;;;4.00;1.83;;;4.60;99.90;;;;;;6246998;23;20047;-80
2024/01/16 03:01:59;;;;;;;3.20;2.10;;;4.70;99.90;;;;;;6219727;23;20050;-80
2024/01/16 03:04:25;;;;;;;4.20;2.27;;;4.70;99.90;;;;;;6247079;23;19997;-80
2024/01/16 03:06:50;;;;;;;3.97;2.50;;;4.70;99.90;;;;;;6220152;23;20011;-76
2024/01/16 03:09:16;;;;;;;3.67;2.17;;;4.70;99.90;;;;;;6246645;23;20000;-79
2024/01/16 03:11:42;;;;;;;3.00;2.30;;;4.70;99.90;;;;;;6247051;23;20004;-73
2024/01/16 03:14:08;;;;;;;4.00;2.30;;;4.60;99.90;;;;;;6246852;23;20024;-80
2024/01/16 03:16:34;;;;;;;3.57;2.60;;;4.60;99.90;;;;;;6247119;23;20016;-77
2024/01/16 03:18:59;;;;;;;3.67;2.23;;;4.60;99.90;;;;;;6246693;23;20457;-79
2024/01/16 03:21:25;;;;;;;3.20;2.23;;;4.60;99.90;;;;;;6219801;23;20004;-80
2024/01/16 03:23:51;;;;;;;4.30;2.83;;;4.60;99.90;;;;;;6246861;23;20027;-77
2024/01/16 03:26:17;;;;;;;3.50;2.23;;;4.60;99.90;;;;;;6246366;23;20000;-76
2024/01/16 03:28:43;;;;;;;3.27;2.23;;;4.60;99.90;;;;;;6247849;23;20015;-64
2024/01/16 03:31:09;;;;;;;3.67;2.40;;;4.50;99.90;;;;;;6246917;23;20020;-63
2024/01/16 03:33:35;;;;;;;4.23;2.40;;;4.50;99.90;;;;;;6246150;23;20023;-63
2024/01/16 03:36:01;;;;;;;4.03;2.43;;;4.50;99.90;;;;;;6246800;23;20008;-64
2024/01/16 03:38:27;;;;;;;3.03;2.17;;;4.50;99.90;;;;;;6247328;23;20453;-64
2024/01/16 03:40:53;;;;;;;3.73;2.30;;;4.50;99.90;;;;;;6246565;22;20016;-66
2024/01/16 03:43:18;;;;;;;5.23;2.40;;;4.50;99.90;;;;;;6246609;23;20383;-66
2024/01/16 03:45:44;;;;;;;3.37;2.20;;;4.50;99.90;;;;;;6246210;23;20043;-67
2024/01/16 03:48:10;;;;;;;3.20;2.10;;;4.50;99.90;;;;;;6246477;23;20071;-64
2024/01/16 03:50:36;;;;;;;3.53;2.20;;;4.40;99.90;;;;;;6219784;23;20015;-77
2024/01/16 03:53:04;;;;;;;3.77;2.27;;;4.40;99.90;;;;;;6247155;23;19997;-78
2024/01/16 03:55:31;;;;;;;3.37;2.00;;;4.50;99.90;;;;;;6220486;23;20000;-77
2024/01/16 03:57:57;;;;;;;2.90;2.03;;;4.50;99.90;;;;;;6246833;23;20004;-77
2024/01/16 04:00:23;;;;;;;4.00;2.40;;;4.50;99.90;;;;;;6247209;23;20271;-78
2024/01/16 04:20:48;;;;;;;31.70;16.97;;;4.30;99.90;;;;;;6066544;23;20014;-80
2024/01/16 04:24:07;;;;;;;16.00;8.77;;;4.30;99.90;;;;;;6066289;23;20003;-78
2024/01/16 04:27:20;;;;;;;7.50;3.97;;;4.20;99.70;;;;;;6034480;23;20098;-79
2024/01/16 04:29:46;;;;;;;5.40;3.67;;;4.20;99.80;;;;;;6059837;23;20014;-78
2024/01/16 04:32:12;;;;;;;5.47;3.47;;;4.20;99.40;;;;;;6169931;23;20040;-79
2024/01/16 04:34:38;;;;;;;7.20;4.17;;;4.20;99.60;;;;;;6246300;23;20071;-79
2024/01/16 04:37:04;;;;;;;6.50;3.77;;;4.10;99.70;;;;;;6246371;23;20083;-79
2024/01/16 04:39:30;;;;;;;4.70;3.43;;;4.10;99.70;;;;;;6218312;23;20082;-76
2024/01/16 04:41:56;;;;;;;4.93;3.20;;;4.10;99.60;;;;;;6245816;23;20014;-78
2024/01/16 04:44:21;;;;;;;3.40;2.63;;;4.10;99.70;;;;;;6246107;23;20028;-78
2024/01/16 04:46:47;;;;;;;4.73;2.80;;;4.10;99.80;;;;;;6246019;23;20000;-78
2024/01/16 04:49:13;;;;;;;3.80;2.80;;;4.10;99.80;;;;;;6245613;23;20004;-78
2024/01/16 04:51:38;;;;;;;4.67;2.43;;;4.00;99.90;;;;;;6245764;23;20016;-76
2024/01/16 04:54:04;;;;;;;3.73;2.20;;;4.00;99.90;;;;;;6245559;23;20418;-75
2024/01/16 04:56:30;;;;;;;3.37;1.90;;;4.00;99.90;;;;;;6245834;23;20008;-78
2024/01/16 04:58:56;;;;;;;3.57;2.20;;;4.00;99.60;;;;;;6245767;23;20003;-78
2024/01/16 05:01:22;;;;;;;3.67;2.60;;;4.00;99.60;;;;;;6245715;23;20007;-78
2024/01/16 05:03:47;;;;;;;3.37;2.20;;;4.00;99.70;;;;;;6245445;23;20035;-77
2024/01/16 05:06:17;;;;;;;4.90;2.43;;;4.00;99.50;;;;;;6245361;23;20067;-78
2024/01/16 05:08:43;;;;;;;3.20;2.27;;;4.00;99.60;;;;;;6245271;23;20028;-78
2024/01/16 05:11:09;;;;;;;4.73;2.30;;;4.00;99.60;;;;;;6246106;23;20394;-79
2024/01/16 05:13:35;;;;;;;4.30;2.50;;;4.00;99.60;;;;;;6245845;23;20419;-79
2024/01/16 05:16:01;;;;;;;5.87;4.30;;;3.90;99.40;;;;;;6245716;23;20016;-75
2024/01/16 05:18:27;;;;;;;4.03;2.83;;;4.00;99.40;;;;;;6245748;23;20023;-78
2024/01/16 05:20:53;;;;;;;3.20;2.20;;;4.00;99.40;;;;;;6219437;23;20055;-79
2024/01/16 05:23:19;;;;;;;3.37;2.20;;;;;;;;;;6245570;23;20000;-79
2024/01/16 05:25:46;;;;;;;3.43;2.37;;;;;;;;;;6245582;23;20004;-77
2024/01/16 05:28:12;;;;;;;3.47;2.37;;;;;;;;;;6245570;23;20030;-78
2024/01/16 05:30:38;;;;;;;2.87;2.03;;;;;;;;;;6245169;23;20012;-78
2024/01/16 05:33:04;;;;;;;2.87;1.80;;;;;;;;;;6245695;23;19996;-80
2024/01/16 05:35:30;;;;;;;3.50;2.23;;;;;;;;;;6245116;23;20043;-78
2024/01/16 05:37:56;;;;;;;4.70;2.40;;;;;;;;;;6246136;23;20000;-79
2024/01/16 05:40:23;;;;;;;3.50;2.40;;;;;;;;;;6245262;23;20020;-79
2024/01/16 06:03:05;;;;;;;6.77;2.37;;;3.50;99.90;;;;;;5954589;22;20024;-79
2024/01/16 06:05:31;;;;;;;3.77;2.70;;;3.50;99.90;;;;;;6271050;22;20007;-77
2024/01/16 06:07:57;;;;;;;6.20;3.10;;;3.40;99.90;;;;;;6276248;22;20003;-80
2024/01/16 06:10:23;;;;;;;4.90;2.90;;;3.40;99.90;;;;;;6275958;22;20012;-79
2024/01/16 06:12:48;;;;;;;6.73;2.73;;;3.30;99.90;;;;;;6275861;22;20011;-79
2024/01/16 06:15:14;;;;;;;4.93;2.30;;;3.40;99.90;;;;;;6275847;22;20018;-79
2024/01/16 06:17:40;;;;;;;4.33;2.70;;;3.30;99.90;;;;;;6275811;22;20064;-79
2024/01/16 06:20:06;;;;;;;3.30;2.07;;;3.30;99.90;;;;;;6275791;22;20010;-80
2024/01/16 06:22:32;;;;;;;3.10;2.10;;;3.30;99.90;;;;;;6276314;22;19995;-79
2024/01/16 06:24:58;;;;;;;3.57;2.40;;;3.30;99.90;;;;;;6248997;22;20066;-80
2024/01/16 06:27:24;;;;;;;4.13;2.50;;;3.30;99.90;;;;;;6275955;22;20087;-76
2024/01/16 06:29:51;;;;;;;4.50;2.40;;;3.30;99.90;;;;;;6275735;22;20050;-80
2024/01/16 06:32:17;;;;;;;5.33;2.93;;;3.40;99.90;;;;;;6276178;22;20011;-76
2024/01/16 06:34:43;;;;;;;7.27;2.83;;;3.50;99.60;;;;;;6276166;22;20000;-79
2024/01/16 06:37:08;;;;;;;5.30;3.53;;;3.40;99.40;;;;;;6276083;22;20376;-78
2024/01/16 06:39:35;;;;;;;5.83;2.60;;;3.40;99.70;;;;;;6276570;22;20004;-77
2024/01/16 06:42:01;;;;;;;5.00;2.47;;;3.50;99.50;;;;;;6274998;22;19999;-79
2024/01/16 06:44:26;;;;;;;5.23;2.53;;;3.40;99.30;;;;;;6275580;22;20000;-77
2024/01/16 06:46:52;;;;;;;2.70;2.00;;;3.40;99.40;;;;;;6275997;22;20007;-79
2024/01/16 06:49:18;;;;;;;7.63;3.03;;;3.40;99.40;;;;;;6276048;22;20004;-77
2024/01/16 06:51:44;;;;;;;5.17;2.67;;;3.40;99.80;;;;;;6275602;22;20016;-78
2024/01/16 06:54:10;;;;;;;5.67;2.37;;;3.40;99.60;;;;;;6275294;22;19996;-79
2024/01/16 06:56:36;;;;;;;4.47;2.47;;;3.30;99.80;;;;;;6275697;22;20494;-76
2024/01/16 06:59:01;;;;;;;4.67;2.63;;;3.30;99.70;;;;;;6274267;22;19996;-79
2024/01/16 07:01:28;;;;;;;4.57;2.70;;;3.40;99.60;;;;;;6275098;22;20026;-79
2024/01/16 07:04:05;;;;;;;13.97;2.87;;;3.40;99.60;;;;;;6293752;22;20023;-75
2024/01/16 07:30:33;;;;;;;6.27;2.77;;;3.30;99.90;;;;;;5682158;25;20056;-78
2024/01/16 07:32:59;;;;;;;4.07;2.30;;;3.30;99.90;;;;;;5775244;24;20021;-77
2024/01/16 07:35:27;;;;;;;4.37;2.70;;;3.40;99.90;;;;;;6056310;23;20023;-78
2024/01/16 07:37:52;;;;;;;4.33;3.07;;;3.40;99.90;;;;;;6248440;22;20413;-77
2024/01/16 07:40:18;;;;;;;4.10;2.40;;;3.40;99.90;;;;;;6307456;22;20378;-78
2024/01/16 07:42:44;;;;;;;5.07;2.30;;;3.50;99.90;;;;;;6307394;22;20074;-79
2024/01/16 07:45:10;;;;;;;5.00;2.37;;;3.50;99.90;;;;;;6307854;22;20006;-79
2024/01/16 07:47:36;;;;;;;3.07;2.20;;;3.60;99.90;;;;;;6307524;22;20328;-64
2024/01/16 07:50:02;;;;;;;3.10;2.30;;;3.70;99.70;;;;;;6307679;22;20074;-78
2024/01/16 07:52:28;;;;;;;4.10;1.97;;;3.70;99.60;;;;;;6307470;22;19996;-78
2024/01/16 07:54:54;;;;;;;4.00;2.60;;;3.80;99.90;;;;;;6307622;22;20000;-71
2024/01/16 07:57:20;;;;;;;3.63;2.20;;;3.90;99.50;;;;;;6307970;22;20452;-77
2024/01/16 07:59:47;;;;;;;3.63;2.33;;;4.00;99.30;;;;;;6307977;22;19996;-78
2024/01/16 08:02:12;;;;;;;4.47;2.13;;;4.00;99.30;;;;;;6307323;22;20333;-77
2024/01/16 08:04:38;;;;;;;4.67;2.33;;;4.10;99.40;;;;;;6307438;22;20018;-78
2024/01/16 08:07:04;;;;;;;6.80;3.80;;;4.20;99.30;;;;;;6307607;22;20010;-77
2024/01/16 08:09:30;;;;;;;5.40;2.20;;;4.30;99.10;;;;;;6307769;22;20023;-78
2024/01/16 08:11:55;;;;;;;5.23;2.70;;;4.40;98.90;;;;;;6307645;22;20017;-65
2024/01/16 08:14:21;;;;;;;3.27;1.60;;;4.50;98.50;;;;;;6307724;22;20022;-66
2024/01/16 08:16:47;;;;;;;3.60;2.10;;;4.50;98.00;;;;;;6307300;22;20026;-65
2024/01/16 08:19:14;;;;;;;4.27;1.80;;;4.60;97.30;;;;;;6307283;22;20002;-66
2024/01/16 08:21:40;;;;;;;3.47;1.83;;;4.70;97.30;;;;;;6307454;22;20000;-65
2024/01/16 08:24:06;;;;;;;5.77;1.97;;;4.80;97.30;;;;;;6307327;22;20299;-67
2024/01/16 08:26:32;;;;;;;5.37;2.17;;;4.80;97.30;;;;;;6307529;22;20003;-68
2024/01/16 08:28:58;;;;;;;3.17;1.63;;;4.90;97.20;;;;;;6307292;22;19999;-65
2024/01/16 08:31:24;;;;;;;2.97;1.60;;;4.90;96.80;;;;;;6308091;22;20098;-67
2024/01/16 08:33:49;;;;;;;4.67;1.80;;;5.00;96.70;;;;;;6307416;22;19999;-66
2024/01/16 08:36:15;;;;;;;3.40;1.90;;;5.10;96.50;;;;;;6307899;22;20324;-69
2024/01/16 08:38:41;;;;;;;6.13;2.13;;;5.20;96.50;;;;;;6308410;22;20371;-66
2024/01/16 08:41:10;;;;;;;5.73;1.60;;;5.20;96.40;;;;;;6307386;22;20005;-65
2024/01/16 08:43:44;;;;;;;3.80;2.00;;;5.30;95.60;;;;;;6308013;22;20372;-65
2024/01/16 08:46:15;;;;;;;4.63;2.63;;;5.30;95.90;;;;;;6307557;22;20006;-66
2024/01/16 08:48:41;;;;;;;3.47;1.83;;;5.40;95.30;;;;;;6307234;22;20004;-65
2024/01/16 08:51:16;;;;;;;3.10;1.53;;;5.40;95.10;;;;;;6307802;22;20371;-71
2024/01/16 08:54:37;;;;;;;2.83;1.50;;;5.50;93.90;;;;;;6307327;22;20413;-67
2024/01/16 08:57:04;;;;;;;3.03;1.83;;;5.60;94.30;;;;;;6307713;22;20412;-75
2024/01/16 08:59:31;;;;;;;2.70;1.60;;;5.60;93.50;;;;;;6307391;22;20321;-66
2024/01/16 09:02:00;;;;;;;2.93;1.60;;;5.60;93.60;;;;;;6306706;22;20010;-65
2024/01/16 09:04:29;;;;;;;5.70;2.00;;;5.60;93.60;;;;;;6306475;22;20366;-66
2024/01/16 09:06:55;;;;;;;2.93;1.70;;;5.70;93.10;;;;;;6306138;22;19999;-71
2024/01/16 09:09:21;;;;;;;3.30;1.80;;;5.70;93.20;;;;;;6307064;22;20121;-65
2024/01/16 09:11:47;;;;;;;6.90;1.73;;;5.70;93.60;;;;;;6307282;22;20030;-67
2024/01/16 09:14:13;;;;;;;3.00;1.83;;;5.80;93.60;;;;;;6307125;22;20004;-67
2024/01/16 09:16:39;;;;;;;3.87;2.00;;;5.80;93.30;;;;;;6307272;22;19999;-66
2024/01/16 09:19:05;;;;;;;2.90;1.70;;;5.90;93.20;;;;;;6307056;22;19999;-65
2024/01/16 09:21:31;;;;;;;4.07;2.10;;;5.90;93.10;;;;;;6306801;22;20070;-67
2024/01/16 09:23:56;;;;;;;4.70;1.90;;;5.90;93.10;;;;;;6307138;22;20033;-66
2024/01/16 09:26:23;;;;;;;3.93;1.90;;;5.90;92.90;;;;;;6306851;22;20375;-65
2024/01/16 09:28:49;;;;;;;4.03;1.87;;;6.00;93.00;;;;;;6307024;22;20074;-74
2024/01/16 09:31:16;;;;;;;6.60;1.70;;;6.00;92.80;;;;;;6306633;22;20103;-66
2024/01/16 09:33:43;;;;;;;4.77;2.17;;;6.00;92.70;;;;;;6306518;22;20006;-66
2024/01/16 09:36:09;;;;;;;4.37;2.10;;;6.10;92.70;;;;;;6306995;22;20009;-66
2024/01/16 09:38:34;;;;;;;3.10;1.60;;;6.10;92.50;;;;;;6307320;22;20429;-66
2024/01/16 09:41:02;;;;;;;3.70;1.67;;;6.20;92.20;;;;;;6305235;22;20007;-65
2024/01/16 09:43:29;;;;;;;3.77;2.23;;;6.20;91.90;;;;;;6303233;22;20425;-67
2024/01/16 09:45:56;;;;;;;3.33;1.80;;;6.30;91.70;;;;;;6303506;22;20003;-67
2024/01/16 09:48:23;;;;;;;2.40;1.50;;;;;;;;;;6279232;22;20447;-66
2024/01/16 09:50:49;;;;;;;3.53;1.73;;;6.30;91.60;;;;;;6306805;22;20425;-70
2024/01/16 09:53:15;;;;;;;9.90;1.87;;;;;;;;;;6306996;22;20019;-66
2024/01/16 09:55:41;;;;;;;3.53;1.60;;;;;;;;;;6306535;22;20021;-66
2024/01/16 09:58:14;;;;;;;3.97;1.50;;;6.60;90.70;;;;;;6306866;22;20075;-66
2024/01/16 10:00:43;;;;;;;4.85;1.58;;;6.60;89.30;;;;;;6306776;22;20366;-65
2024/01/16 10:03:13;;;;;;;3.40;1.77;;;6.70;88.90;;;;;;6306568;22;20090;-66
2024/01/16 10:05:42;;;;;;;3.90;1.40;;;6.70;89.10;;;;;;6307083;22;20001;-66
2024/01/16 10:08:08;;;;;;;3.77;1.40;;;6.80;86.90;;;;;;6307017;22;20414;-67
2024/01/16 10:10:34;;;;;;;3.00;1.57;;;6.80;87.00;;;;;;6306935;22;20018;-66
2024/01/16 10:13:00;;;;;;;3.27;1.50;;;;;;;;;;6307526;22;20102;-66
2024/01/16 10:15:27;;;;;;;6.23;1.40;;;;;;;;;;6307355;22;20061;-66
2024/01/16 10:17:53;;;;;;;3.03;1.40;;;6.90;84.20;;;;;;6307324;22;20022;-66
2024/01/16 10:20:53;;;;;;;2.40;1.27;;;6.90;81.10;;;;;;6307234;22;20002;-66
2024/01/16 10:30:59;;;;;;;2.00;1.20;;;7.00;80.10;;;;;;6304941;22;20498;-66
2024/01/16 10:33:47;;;;;;;1.90;1.17;;;;;;;;;;6181714;23;20001;-66
2024/01/16 10:42:46;;;;;;;3.33;1.50;;;;;;;;;;6183289;23;20470;-66
2024/01/16 10:45:18;;;;;;;4.45;1.38;;;;;;;;;;6155490;23;20009;-67
2024/01/16 10:47:46;;;;;;;5.18;1.45;;;;;;;;;;6183594;23;20016;-66
2024/01/16 10:50:13;;;;;;;2.37;1.30;;;7.10;78.80;;;;;;6262387;22;20368;-74
2024/01/16 10:52:50;;;;;;;4.37;1.10;;;7.50;73.50;;;;;;6308341;22;20121;-66
2024/01/16 10:55:23;;;;;;;5.80;1.47;;;7.60;74.40;;;;;;6273691;22;20019;-75
2024/01/16 10:57:50;;;;;;;7.00;1.00;;;7.60;73.30;;;;;;6275080;22;20007;-76
2024/01/16 11:00:19;;;;;;;2.40;1.20;;;7.70;71.50;;;;;;6276532;22;20053;-78
2024/01/16 11:02:57;;;;;;;2.50;1.20;;;7.70;70.40;;;;;;6276378;22;19999;-76
2024/01/16 11:05:23;;;;;;;6.73;1.63;;;7.70;70.00;;;;;;6276568;22;20000;-66
2024/01/16 11:07:50;;;;;;;4.60;1.30;;;7.80;70.40;;;;;;6276170;22;20003;-79
2024/01/16 11:10:17;;;;;;;3.23;1.30;;;7.90;70.70;;;;;;6276027;22;20360;-78
2024/01/16 11:12:45;;;;;;;2.77;1.30;;;7.90;70.30;;;;;;6276725;22;20066;-66
2024/01/16 11:15:12;;;;;;;3.00;1.37;;;7.90;70.70;;;;;;6275972;22;20000;-65
2024/01/16 11:17:39;;;;;;;3.03;1.27;;;8.00;70.20;;;;;;6274690;22;20469;-66
2024/01/16 11:20:09;;;;;;;3.97;1.40;;;8.00;68.80;;;;;;6274747;22;20053;-66
2024/01/16 11:22:39;;;;;;;7.10;1.47;;;8.10;69.30;;;;;;6273034;22;20192;-69
2024/01/16 11:25:09;;;;;;;1.87;1.30;;;8.20;68.80;;;;;;6275081;22;20104;-79
2024/01/16 11:27:37;;;;;;;4.10;1.53;;;8.30;68.90;;;;;;6272733;22;19999;-73
2024/01/16 11:30:04;;;;;;;2.63;1.53;;;;;;;;;;6273512;22;20434;-66
2024/01/16 11:32:35;;;;;;;2.77;1.40;;;;;;;;;;6274168;22;20015;-74
2024/01/16 11:35:01;;;;;;;3.77;1.27;;;;;;;;;;6277127;22;20011;-74
2024/01/16 11:37:32;;;;;;;1.77;1.10;;;;;;;;;;6277686;22;20003;-67
2024/01/16 11:40:26;;;;;;;2.17;1.27;;;;;;;;;;6277407;22;19999;-68
2024/01/16 11:42:53;;;;;;;1.97;1.03;;;;;;;;;;6275902;22;20000;-70
2024/01/16 11:45:29;;;;;;;2.07;1.03;;;;;;;;;;6274186;22;20010;-66
2024/01/16 11:48:13;;;;;;;3.10;1.43;;;;;;;;;;6274971;22;20011;-67
2024/01/16 11:50:40;;;;;;;1.37;0.97;;;8.30;68.50;;;;;;6277646;22;20016;-67
2024/01/16 11:53:06;;;;;;;2.80;1.50;;;8.80;65.00;;;;;;6277924;22;20022;-67
2024/01/16 11:55:51;;;;;;;4.67;1.10;;;8.80;65.30;;;;;;6277873;22;20026;-67
2024/01/16 12:20:22;;;;;;;1.83;1.10;;;8.90;63.80;;;;;;6153581;23;20121;-66
2024/01/16 12:23:07;;;;;;;1.97;1.30;;;8.90;64.50;;;;;;6153485;23;20002;-67
2024/01/16 12:25:34;;;;;;;2.03;1.17;;;8.90;63.90;;;;;;6171882;23;20032;-67
2024/01/16 12:28:02;;;;;;;2.17;1.00;;;8.90;65.20;;;;;;6255368;22;20008;-67
2024/01/16 12:30:32;;;;;;;5.37;1.60;;;9.00;63.30;;;;;;6276935;22;20427;-67
2024/01/16 12:33:08;;;;;;;2.47;1.30;;;8.90;63.40;;;;;;6276817;22;20031;-66
2024/01/16 12:35:38;;;;;;;2.93;1.43;;;8.90;62.20;;;;;;6276881;22;20341;-66
2024/01/16 12:38:06;;;;;;;4.30;1.93;;;8.80;62.40;;;;;;6276381;22;20003;-67
2024/01/16 12:40:33;;;;;;;2.07;1.37;;;8.70;63.20;;;;;;6276127;22;20004;-68
2024/01/16 12:42:59;;;;;;;2.90;1.53;;;8.70;63.70;;;;;;6276924;22;20025;-65
2024/01/16 12:45:25;;;;;;;1.67;1.10;;;8.60;63.80;;;;;;6276782;22;20460;-65
2024/01/16 12:47:53;;;;;;;2.43;1.30;;;8.60;63.80;;;;;;6276407;22;20426;-66
2024/01/16 12:50:22;;;;;;;3.73;1.67;;;8.60;63.10;;;;;;6276341;22;20090;-67
2024/01/16 12:52:49;;;;;;;3.67;1.80;;;8.50;63.40;;;;;;6276520;22;20003;-67
2024/01/16 12:55:15;;;;;;;2.67;1.70;;;8.60;64.20;;;;;;6276412;22;20448;-68
2024/01/16 12:57:41;;;;;;;3.13;1.67;;;8.50;64.30;;;;;;6276767;22;20008;-68
2024/01/16 13:00:24;;;;;;;3.73;2.00;;;8.60;65.00;;;;;;6276405;22;20065;-67
2024/01/16 13:02:55;;;;;;;3.45;2.00;;;8.60;63.80;;;;;;6276522;22;20000;-66
2024/01/16 13:05:21;;;;;;;5.93;1.63;;;8.60;64.00;;;;;;6276560;22;20381;-67
2024/01/16 13:08:01;;;;;;;2.57;1.47;;;8.70;64.20;;;;;;6276385;22;20004;-66
2024/01/16 13:10:26;;;;;;;8.60;1.70;;;8.70;63.90;;;;;;6248974;22;20092;-65
2024/01/16 13:12:52;;;;;;;2.67;1.50;;;8.80;64.60;;;;;;6276290;22;19992;-65
2024/01/16 13:15:18;;;;;;;2.37;1.60;;;8.80;64.50;;;;;;6276483;22;20004;-66
2024/01/16 13:17:44;;;;;;;3.17;1.43;;;8.80;63.90;;;;;;6275157;22;20003;-66
2024/01/16 13:20:12;;;;;;;2.30;1.17;;;8.90;64.30;;;;;;6276520;22;20050;-66
2024/01/16 13:22:38;;;;;;;3.17;1.60;;;9.00;64.20;;;;;;6276199;22;20031;-66
2024/01/16 13:25:05;;;;;;;2.53;1.40;;;8.90;61.90;;;;;;6276402;22;20007;-66
2024/01/16 13:27:32;;;;;;;3.73;1.60;;;9.00;62.50;;;;;;6276733;22;19996;-67
2024/01/16 13:29:58;;;;;;;7.13;1.53;;;9.00;62.50;;;;;;6276751;22;20039;-67
2024/01/16 13:32:24;;;;;;;3.17;1.47;;;9.00;62.60;;;;;;6277233;22;20057;-67
2024/01/16 13:59:20;;;;;;;2.63;1.80;;;9.10;61.90;;;;;;6008753;23;20048;-66
2024/01/16 14:01:49;;;;;;;6.53;1.40;;;9.00;62.30;;;;;;5994169;23;20012;-66
2024/01/16 14:04:15;;;;;;;3.33;1.80;;;9.00;63.00;;;;;;6102548;23;20010;-66
2024/01/16 14:06:40;;;;;;;2.77;1.60;;;9.00;63.80;;;;;;6237888;22;20011;-66
2024/01/16 14:09:09;;;;;;;2.70;1.57;;;9.00;64.50;;;;;;6275786;22;19996;-66
2024/01/16 14:11:35;;;;;;;6.10;2.43;;;9.00;64.80;;;;;;6276020;22;20365;-66
2024/01/16 14:14:00;;;;;;;2.93;1.63;;;9.00;65.00;;;;;;6276280;22;20045;-64
2024/01/16 14:16:28;;;;;;;3.67;1.90;;;9.00;65.50;;;;;;6275777;22;20026;-64
2024/01/16 14:18:54;;;;;;;2.90;1.77;;;8.90;65.60;;;;;;6275975;22;19996;-65
2024/01/16 14:21:20;;;;;;;2.97;1.20;;;8.90;65.60;;;;;;6276171;22;20010;-65
2024/01/16 14:23:46;;;;;;;2.80;1.23;;;8.90;65.50;;;;;;6276122;22;20000;-64
2024/01/16 14:26:11;;;;;;;2.83;1.20;;;8.90;64.90;;;;;;6276022;22;20057;-65
2024/01/16 14:28:37;;;;;;;2.23;1.10;;;8.90;64.40;;;;;;6275737;22;20008;-65
2024/01/16 14:31:03;;;;;;;4.60;1.40;;;8.90;64.10;;;;;;6275875;22;20012;-64
2024/01/16 14:33:29;;;;;;;6.90;1.80;;;8.90;64.10;;;;;;6276126;22;20035;-64
2024/01/16 14:35:55;;;;;;;8.67;2.50;;;8.90;64.60;;;;;;6276427;22;20007;-64
2024/01/16 14:38:21;;;;;;;7.67;3.27;;;8.90;64.60;;;;;;6276229;22;20430;-64
2024/01/16 14:40:47;;;;;;;4.30;2.33;;;8.90;63.90;;;;;;6275944;22;19996;-64
2024/01/16 14:43:12;;;;;;;7.83;2.77;;;8.90;63.40;;;;;;6276395;22;20053;-66
2024/01/16 14:45:38;;;;;;;5.53;3.37;;;8.90;63.50;;;;;;6276026;22;20103;-66
2024/01/16 14:48:05;;;;;;;6.17;2.67;;;8.90;63.90;;;;;;6275613;22;20013;-67
2024/01/16 14:50:30;;;;;;;4.43;2.70;;;8.90;64.40;;;;;;6275708;22;20008;-66
2024/01/16 14:52:56;;;;;;;4.70;3.10;;;8.90;64.20;;;;;;6275684;22;20003;-67
2024/01/16 14:55:22;;;;;;;9.70;3.47;;;8.90;63.90;;;;;;6275261;22;20004;-78
2024/01/16 14:57:59;;;;;;;10.23;4.60;;;8.80;64.50;;;;;;6275170;22;20027;-75
2024/01/16 15:00:26;;;;;;;10.13;3.70;;;8.80;64.10;;;;;;6276499;22;20000;-69
2024/01/16 15:02:56;;;;;;;7.83;3.70;;;8.80;64.20;;;;;;6276279;22;20087;-67
2024/01/16 15:05:23;;;;;;;7.63;3.50;;;8.80;63.90;;;;;;6276301;22;20543;-67
2024/01/16 15:07:51;;;;;;;5.47;3.10;;;8.70;64.00;;;;;;6276744;22;20000;-68
2024/01/16 15:10:24;;;;;;;6.73;3.27;;;8.70;64.00;;;;;;6276300;22;20421;-67
2024/01/16 15:36:16;;;;;;;8.17;3.63;;;8.30;67.10;;;;;;6275504;22;20006;-66
2024/01/16 15:38:42;;;;;;;6.40;3.97;;;8.30;67.50;;;;;;6277397;22;20000;-67
2024/01/16 15:41:08;;;;;;;8.97;3.83;;;8.30;67.90;;;;;;6276436;22;20000;-68
2024/01/16 15:43:35;;;;;;;10.00;4.53;;;8.30;68.30;;;;;;6276759;22;20372;-69
2024/01/16 15:46:01;;;;;;;13.93;5.57;;;8.20;68.60;;;;;;6276755;22;20349;-65
2024/01/16 15:48:32;;;;;;;14.37;5.63;;;8.10;69.00;;;;;;6277018;22;20010;-67
2024/01/16 15:50:58;;;;;;;14.90;6.57;;;8.10;69.20;;;;;;6276887;22;20015;-66
2024/01/16 15:53:24;;;;;;;14.00;6.53;;;8.10;69.30;;;;;;6276258;22;20004;-67
2024/01/16 15:55:50;;;;;;;19.00;7.67;;;8.00;69.60;;;;;;6276889;22;20010;-68
2024/01/16 15:58:16;;;;;;;14.43;6.70;;;8.00;69.90;;;;;;6277052;22;20000;-66
2024/01/16 16:00:42;;;;;;;15.40;6.07;;;7.90;70.20;;;;;;6276742;22;20023;-66
2024/01/16 16:03:08;;;;;;;13.03;6.27;;;7.90;70.50;;;;;;6277182;22;20087;-67
2024/01/16 16:05:33;;;;;;;13.10;6.53;;;7.80;70.60;;;;;;6277187;22;20019;-69
2024/01/16 16:07:59;;;;;;;10.07;5.70;;;7.80;70.90;;;;;;6276993;22;20031;-66
2024/01/16 16:10:26;;;;;;;12.83;5.90;;;7.80;71.30;;;;;;6276940;22;20007;-67
2024/01/16 16:12:52;;;;;;;10.30;5.97;;;7.70;71.30;;;;;;6276665;22;20480;-67
2024/01/16 16:15:18;;;;;;;12.27;6.20;;;7.70;71.60;;;;;;6276178;22;20003;-67